Terminal Aerodrome Forecast
Issued by NWS

Home | Current Version | Previous Version | Text Only | Print | Product List | Glossary On
Versions: 1 2 3 4 5 6 7 8 9 10 11 12 13 14 15 16 17 18 19 20 21 22
916
FTUS44 KMAF 252026 AAC
TAFPEQ
TAF AMD
KPEQ 252026Z 2520/2618 32010KT P6SM SCT020 BKN045
      TEMPO 2520/2524 VRB14G25KT 2SM +TSRA BKN015CB=

USA.gov is the U.S. government's official web portal to all federal, state and local government web resources and services.